createdAt,value
2019-01-24T00:00:12.861Z,99.10
2019-01-24T00:01:12.811Z,100.70
2019-01-24T00:02:12.823Z,103.10
2019-01-24T00:03:12.794Z,101.90
2019-01-24T00:04:16.746Z,105.00
2019-01-24T00:05:12.767Z,103.70
2019-01-24T00:06:12.763Z,102.60
2019-01-24T00:07:12.811Z,103.90
2019-01-24T00:08:12.738Z,97.40
2019-01-24T00:09:12.723Z,100.30
2019-01-24T00:10:12.712Z,102.20
2019-01-24T00:11:12.706Z,106.30
2019-01-24T00:12:12.716Z,97.00
2019-01-24T00:13:12.704Z,101.00
2019-01-24T00:14:12.696Z,103.70
2019-01-24T00:15:12.662Z,100.40
2019-01-24T00:16:12.699Z,104.80
2019-01-24T00:17:12.636Z,100.20
2019-01-24T00:18:12.672Z,98.90
2019-01-24T00:19:12.621Z,103.00
2019-01-24T00:20:12.606Z,101.90
2019-01-24T00:21:12.607Z,96.70
2019-01-24T00:22:12.582Z,103.50
2019-01-24T00:23:12.598Z,98.30
2019-01-24T00:24:12.562Z,100.10
2019-01-24T00:25:12.583Z,100.90
2019-01-24T00:26:12.541Z,101.00
2019-01-24T00:27:12.542Z,107.80
2019-01-24T00:28:12.521Z,98.90
2019-01-24T00:29:12.508Z,99.40
2019-01-24T00:30:12.529Z,100.30
2019-01-24T00:31:12.487Z,96.40
2019-01-24T00:32:12.477Z,101.60
2019-01-24T00:33:12.483Z,99.30
2019-01-24T00:34:12.454Z,96.10
2019-01-24T00:35:12.468Z,101.50
2019-01-24T00:36:12.430Z,100.20
2019-01-24T00:37:12.423Z,101.30
2019-01-24T00:38:12.412Z,96.10
2019-01-24T00:39:12.436Z,101.80
2019-01-24T00:40:12.412Z,103.00
2019-01-24T00:41:12.377Z,102.50
2019-01-24T00:42:12.369Z,101.90
2019-01-24T00:43:12.359Z,99.40
2019-01-24T00:44:12.348Z,96.30
2019-01-24T00:45:12.378Z,102.20
2019-01-24T00:46:12.341Z,104.70
2019-01-24T00:47:12.313Z,104.10
2019-01-24T00:48:12.300Z,101.60
2019-01-24T00:49:12.292Z,98.80
2019-01-24T00:50:12.281Z,97.60
2019-01-24T00:51:12.294Z,102.30
2019-01-24T00:52:12.285Z,103.80
2019-01-24T00:53:12.265Z,103.40
2019-01-24T00:54:12.235Z,104.50
2019-01-24T00:55:12.227Z,106.30
2019-01-24T00:56:12.237Z,104.80
2019-01-24T00:57:12.201Z,99.80
2019-01-24T00:58:12.194Z,103.70
2019-01-24T00:59:12.180Z,103.20
2019-01-24T01:00:12.191Z,106.50
2019-01-24T01:01:12.162Z,98.80
2019-01-24T01:02:12.170Z,101.50
2019-01-24T01:03:12.139Z,98.10
2019-01-24T01:04:12.169Z,105.00
2019-01-24T01:05:12.120Z,96.90
2019-01-24T01:06:12.110Z,97.90
2019-01-24T01:07:12.121Z,102.40
2019-01-24T01:08:12.084Z,96.10
2019-01-24T01:09:12.133Z,98.20
2019-01-24T01:10:12.063Z,104.90
2019-01-24T01:11:12.078Z,93.50
2019-01-24T01:12:12.038Z,91.50
2019-01-24T01:13:12.031Z,93.30
2019-01-24T01:14:12.040Z,97.90
2019-01-24T01:15:12.032Z,95.80
2019-01-24T01:16:12.000Z,97.70
2019-01-24T01:17:13.369Z,95.90
2019-01-24T01:18:11.981Z,96.70
2019-01-24T01:19:11.960Z,99.00
2019-01-24T01:20:11.985Z,93.50
2019-01-24T01:21:11.946Z,95.10
2019-01-24T01:22:11.931Z,96.40
2019-01-24T01:23:11.932Z,95.00
2019-01-24T01:24:11.914Z,94.40
2019-01-24T01:25:11.941Z,99.10
2019-01-24T01:26:11.889Z,93.50
2019-01-24T01:27:11.879Z,101.10
2019-01-24T01:28:11.883Z,96.90
2019-01-24T01:29:11.852Z,98.60
2019-01-24T01:30:11.875Z,95.80
2019-01-24T01:31:11.832Z,96.50
2019-01-24T01:32:11.823Z,92.60
2019-01-24T01:33:11.821Z,95.10
2019-01-24T01:34:11.805Z,89.10
2019-01-24T01:35:11.826Z,94.00
2019-01-24T01:36:11.806Z,87.20
2019-01-24T01:37:11.767Z,92.70
2019-01-24T01:38:11.766Z,89.90
2019-01-24T01:39:11.749Z,93.80
2019-01-24T01:40:11.734Z,87.10
2019-01-24T01:41:11.760Z,82.70
2019-01-24T01:42:11.711Z,82.80
2019-01-24T01:43:11.701Z,85.90
2019-01-24T01:44:11.693Z,85.60
2019-01-24T01:45:11.679Z,89.80
2019-01-24T01:46:11.714Z,82.70
2019-01-24T01:47:11.688Z,84.20
2019-01-24T01:48:11.648Z,81.20
2019-01-24T01:49:11.636Z,87.70
2019-01-24T01:50:11.623Z,84.00
2019-01-24T01:51:11.613Z,87.80
2019-01-24T01:52:11.631Z,84.90
2019-01-24T01:53:11.597Z,90.80
2019-01-24T01:54:11.594Z,82.00
2019-01-24T01:55:11.572Z,83.70
2019-01-24T01:56:11.567Z,78.90
2019-01-24T01:57:11.574Z,77.80
2019-01-24T01:58:11.562Z,75.30
2019-01-24T01:59:11.537Z,70.40
2019-01-24T02:00:11.521Z,75.20
2019-01-24T02:01:11.528Z,68.90
2019-01-24T02:02:11.495Z,72.80
2019-01-24T02:03:11.512Z,76.40
2019-01-24T02:04:11.471Z,75.20
2019-01-24T02:05:11.464Z,75.00
2019-01-24T02:06:11.453Z,71.90
2019-01-24T02:07:11.464Z,76.70
2019-01-24T02:08:11.469Z,75.40
2019-01-24T02:09:11.420Z,75.50
2019-01-24T02:10:11.410Z,75.00
2019-01-24T02:11:11.401Z,76.40
2019-01-24T02:12:11.384Z,79.20
2019-01-24T02:13:11.412Z,73.10
2019-01-24T02:14:11.367Z,72.70
2019-01-24T02:15:11.390Z,74.40
2019-01-24T02:16:11.346Z,75.60
2019-01-24T02:17:11.334Z,73.60
2019-01-24T02:18:11.337Z,72.50
2019-01-24T02:19:11.314Z,70.90
2019-01-24T02:20:11.303Z,71.80
2019-01-24T02:21:11.323Z,65.80
2019-01-24T02:22:11.282Z,71.20
2019-01-24T02:23:11.286Z,73.30
2019-01-24T02:24:11.258Z,71.20
2019-01-24T02:25:11.247Z,70.80
2019-01-24T02:26:11.269Z,66.30
2019-01-24T02:27:11.231Z,71.40
2019-01-24T02:28:11.214Z,69.00
2019-01-24T02:29:11.204Z,68.60
2019-01-24T02:30:11.198Z,68.30
2019-01-24T02:31:11.207Z,66.50
2019-01-24T02:32:11.171Z,67.50
2019-01-24T02:33:11.182Z,64.70
2019-01-24T02:34:11.163Z,67.70
2019-01-24T02:35:11.139Z,66.00
2019-01-24T02:36:11.166Z,67.50
2019-01-24T02:37:11.121Z,68.70
2019-01-24T02:38:11.110Z,63.70
2019-01-24T02:39:11.098Z,66.40
2019-01-24T02:40:11.086Z,65.10
2019-01-24T02:41:11.091Z,64.50
2019-01-24T02:42:11.061Z,64.80
2019-01-24T02:43:11.100Z,64.90
2019-01-24T02:44:11.042Z,69.00
2019-01-24T02:45:11.033Z,68.30
2019-01-24T02:46:11.049Z,70.90
2019-01-24T02:47:11.008Z,65.60
2019-01-24T02:48:11.003Z,64.30
2019-01-24T02:49:11.025Z,66.30
2019-01-24T02:50:10.977Z,68.70
2019-01-24T02:51:10.987Z,63.50
2019-01-24T02:52:10.960Z,72.00
2019-01-24T02:53:11.052Z,70.80
2019-01-24T02:54:10.940Z,70.10
2019-01-24T02:55:10.925Z,68.50
2019-01-24T02:56:10.941Z,67.70
2019-01-24T02:57:10.901Z,68.00
2019-01-24T02:58:10.960Z,69.70
2019-01-24T02:59:10.882Z,69.50
2019-01-24T03:00:10.870Z,67.10
2019-01-24T03:01:10.888Z,62.60
2019-01-24T03:02:10.850Z,67.50
2019-01-24T03:03:10.836Z,65.60
2019-01-24T03:04:10.852Z,63.30
2019-01-24T03:05:10.816Z,64.00
2019-01-24T03:06:10.842Z,65.60
2019-01-24T03:07:10.824Z,67.70
2019-01-24T03:08:10.789Z,64.90
2019-01-24T03:09:10.773Z,65.20
2019-01-24T03:10:10.764Z,62.20
2019-01-24T03:11:10.768Z,64.10
2019-01-24T03:12:10.761Z,65.50
2019-01-24T03:13:10.746Z,66.00
2019-01-24T03:14:10.744Z,64.20
2019-01-24T03:15:10.711Z,61.50
2019-01-24T03:16:10.722Z,63.30
2019-01-24T03:17:10.688Z,63.90
2019-01-24T03:18:10.677Z,61.90
2019-01-24T03:19:10.690Z,64.50
2019-01-24T03:20:10.654Z,64.80
2019-01-24T03:21:10.675Z,59.90
2019-01-24T03:22:10.635Z,63.20
2019-01-24T03:23:10.623Z,62.60
2019-01-24T03:24:10.612Z,62.70
2019-01-24T03:25:10.615Z,66.50
2019-01-24T03:26:10.619Z,63.20
2019-01-24T03:27:10.579Z,61.10
2019-01-24T03:28:10.572Z,59.80
2019-01-24T03:29:10.560Z,66.90
2019-01-24T03:30:10.601Z,63.20
2019-01-24T03:31:10.549Z,64.50
2019-01-24T03:32:10.576Z,63.20
2019-01-24T03:33:10.667Z,65.50
2019-01-24T03:34:10.504Z,67.00
2019-01-24T03:35:10.496Z,65.10
2019-01-24T03:36:10.528Z,63.10
2019-01-24T03:37:10.473Z,65.20
2019-01-24T03:38:10.470Z,61.30
2019-01-24T03:39:10.473Z,62.90
2019-01-24T03:40:10.447Z,63.80
2019-01-24T03:41:10.431Z,58.50
2019-01-24T03:42:10.422Z,61.60
2019-01-24T03:43:10.433Z,62.50
2019-01-24T03:44:10.404Z,63.20
2019-01-24T03:45:10.394Z,59.10
2019-01-24T03:46:10.376Z,59.70
2019-01-24T03:47:10.362Z,61.50
2019-01-24T03:48:10.403Z,61.00
2019-01-24T03:49:10.347Z,60.60
2019-01-24T03:50:10.332Z,64.90
2019-01-24T03:51:10.345Z,66.00
2019-01-24T03:52:10.382Z,62.20
2019-01-24T03:53:10.304Z,62.70
2019-01-24T03:54:10.321Z,59.40
2019-01-24T03:55:10.285Z,61.20
2019-01-24T03:56:10.286Z,60.10
2019-01-24T03:57:10.256Z,63.40
2019-01-24T03:58:10.246Z,55.80
2019-01-24T03:59:10.283Z,56.40
2019-01-24T04:00:10.231Z,56.80
2019-01-24T04:01:10.214Z,57.90
2019-01-24T04:02:10.201Z,58.20
2019-01-24T04:03:10.220Z,60.40
2019-01-24T04:04:10.183Z,61.40
2019-01-24T04:05:12.027Z,60.80
2019-01-24T04:06:10.158Z,59.10
2019-01-24T04:07:10.151Z,57.40
2019-01-24T04:08:10.181Z,58.60
2019-01-24T04:09:10.130Z,57.40
2019-01-24T04:10:10.116Z,60.70
2019-01-24T04:11:10.132Z,56.10
2019-01-24T04:12:10.096Z,56.70
2019-01-24T04:13:10.112Z,55.20
2019-01-24T04:14:10.088Z,58.40
2019-01-24T04:15:10.065Z,58.50
2019-01-24T04:16:10.074Z,59.70
2019-01-24T04:17:10.041Z,57.60
2019-01-24T04:18:10.036Z,53.20
2019-01-24T04:19:10.021Z,58.10
2019-01-24T04:20:10.010Z,54.70
2019-01-24T04:21:10.032Z,57.10
2019-01-24T04:22:10.004Z,60.40
2019-01-24T04:23:09.998Z,54.40
2019-01-24T04:24:09.994Z,57.00
2019-01-24T04:25:09.957Z,58.00
2019-01-24T04:26:09.942Z,59.20
2019-01-24T04:27:09.947Z,57.60
2019-01-24T04:28:09.952Z,56.40
2019-01-24T04:29:09.912Z,55.90
2019-01-24T04:30:09.903Z,58.10
2019-01-24T04:31:09.913Z,59.30
2019-01-24T04:32:09.902Z,55.40
2019-01-24T04:33:09.873Z,56.40
2019-01-24T04:34:09.859Z,57.60
2019-01-24T04:35:09.849Z,55.80
2019-01-24T04:36:09.840Z,54.80
2019-01-24T04:37:09.853Z,56.10
2019-01-24T04:38:09.814Z,57.60
2019-01-24T04:39:09.817Z,55.30
2019-01-24T04:40:09.803Z,55.80
2019-01-24T04:41:09.783Z,62.60
2019-01-24T04:42:09.795Z,54.50
2019-01-24T04:43:09.763Z,57.80
2019-01-24T04:44:09.755Z,53.90
2019-01-24T04:45:09.758Z,56.10
2019-01-24T04:46:09.820Z,58.70
2019-01-24T04:47:09.717Z,59.90
2019-01-24T04:48:09.721Z,59.40
2019-01-24T04:49:09.698Z,63.50
2019-01-24T04:50:09.687Z,59.40
2019-01-24T04:51:09.674Z,58.50
2019-01-24T04:52:09.730Z,58.70
2019-01-24T04:53:09.656Z,57.70
2019-01-24T04:54:09.652Z,61.50
2019-01-24T04:55:09.664Z,59.20
2019-01-24T04:56:09.620Z,56.30
2019-01-24T04:57:09.621Z,55.80
2019-01-24T04:58:09.598Z,61.30
2019-01-24T04:59:09.590Z,62.20
2019-01-24T05:00:09.628Z,63.60
2019-01-24T05:01:09.566Z,62.30
2019-01-24T05:02:09.557Z,64.10
2019-01-24T05:03:09.545Z,57.80
2019-01-24T05:04:09.566Z,58.70
2019-01-24T05:05:09.526Z,58.80
2019-01-24T05:06:09.514Z,59.80
2019-01-24T05:07:09.500Z,63.00
2019-01-24T05:08:09.525Z,59.60
2019-01-24T05:09:09.508Z,58.70
2019-01-24T05:10:09.470Z,58.20
2019-01-24T05:11:09.488Z,62.10
2019-01-24T05:12:09.451Z,58.20
2019-01-24T05:13:09.438Z,55.90
2019-01-24T05:14:09.424Z,53.80
2019-01-24T05:15:09.434Z,58.30
2019-01-24T05:16:09.418Z,55.60
2019-01-24T05:17:09.798Z,57.70
2019-01-24T05:18:09.447Z,56.20
2019-01-24T05:19:09.369Z,56.10
2019-01-24T05:20:09.361Z,55.00
2019-01-24T05:21:09.385Z,55.10
2019-01-24T05:22:09.339Z,56.10
2019-01-24T05:23:09.346Z,57.80
2019-01-24T05:24:09.315Z,52.20
2019-01-24T05:25:09.304Z,54.30
2019-01-24T05:26:09.324Z,58.00
2019-01-24T05:27:09.282Z,54.70
2019-01-24T05:28:09.298Z,59.10
2019-01-24T05:29:09.281Z,54.80
2019-01-24T05:30:09.251Z,57.80
2019-01-24T05:31:09.268Z,56.40
2019-01-24T05:32:09.261Z,57.00
2019-01-24T05:33:09.247Z,54.70
2019-01-24T05:34:09.206Z,55.30
2019-01-24T05:35:09.230Z,56.30
2019-01-24T05:36:09.211Z,57.80
2019-01-24T05:37:09.179Z,55.70
2019-01-24T05:38:09.176Z,60.20
2019-01-24T05:39:09.155Z,56.50
2019-01-24T05:40:09.160Z,58.40
2019-01-24T05:41:09.159Z,56.50
2019-01-24T05:42:09.119Z,58.10
2019-01-24T05:43:09.135Z,56.70
2019-01-24T05:44:09.102Z,61.80
2019-01-24T05:45:09.087Z,60.10
2019-01-24T05:46:09.121Z,57.00
2019-01-24T05:47:09.065Z,60.50
2019-01-24T05:48:09.061Z,55.60
2019-01-24T05:49:09.052Z,56.90
2019-01-24T05:50:09.052Z,58.50
2019-01-24T05:51:09.065Z,54.70
2019-01-24T05:52:09.010Z,57.50
2019-01-24T05:53:09.037Z,59.20
2019-01-24T05:54:08.989Z,58.30
2019-01-24T05:55:09.033Z,57.00
2019-01-24T05:56:08.996Z,56.00
2019-01-24T05:57:08.957Z,59.50
2019-01-24T05:58:08.946Z,53.80
2019-01-24T05:59:08.976Z,58.10
2019-01-24T06:00:08.927Z,50.70
2019-01-24T06:01:08.947Z,61.60
2019-01-24T06:02:08.905Z,57.00
2019-01-24T06:03:08.893Z,53.70
2019-01-24T06:04:08.882Z,55.60
2019-01-24T06:05:08.928Z,60.30
2019-01-24T06:06:08.862Z,57.40
2019-01-24T06:07:08.855Z,55.30
2019-01-24T06:08:08.903Z,57.00
2019-01-24T06:09:08.829Z,59.50
2019-01-24T06:10:08.818Z,57.90
2019-01-24T06:11:08.810Z,59.90
2019-01-24T06:12:08.822Z,56.50
2019-01-24T06:13:08.826Z,58.80
2019-01-24T06:14:08.772Z,60.20
2019-01-24T06:15:08.770Z,59.00
2019-01-24T06:16:08.754Z,57.50
2019-01-24T06:17:08.766Z,60.30
2019-01-24T06:18:08.761Z,57.50
2019-01-24T06:19:08.723Z,57.40
2019-01-24T06:20:08.754Z,58.20
2019-01-24T06:21:08.704Z,60.20
2019-01-24T06:22:08.686Z,61.00
2019-01-24T06:23:08.696Z,63.10
2019-01-24T06:24:08.675Z,62.30
2019-01-24T06:25:08.707Z,58.20
2019-01-24T06:26:08.643Z,62.00
2019-01-24T06:27:08.661Z,58.50
2019-01-24T06:28:08.620Z,60.20
2019-01-24T06:29:08.617Z,57.50
2019-01-24T06:30:08.644Z,61.20
2019-01-24T06:31:08.591Z,54.90
2019-01-24T06:32:08.578Z,56.10
2019-01-24T06:33:08.568Z,58.20
2019-01-24T06:34:08.562Z,59.50
2019-01-24T06:35:08.580Z,56.40
2019-01-24T06:36:08.558Z,56.30
2019-01-24T06:37:08.526Z,56.60
2019-01-24T06:38:08.518Z,61.80
2019-01-24T06:39:08.505Z,57.40
2019-01-24T06:40:08.523Z,55.20
2019-01-24T06:41:08.482Z,57.80
2019-01-24T06:42:08.495Z,58.80
2019-01-24T06:43:08.464Z,58.30
2019-01-24T06:44:08.468Z,57.50
2019-01-24T06:45:08.440Z,60.00
2019-01-24T06:46:08.427Z,53.60
2019-01-24T06:47:08.446Z,58.20
2019-01-24T06:48:08.416Z,54.70
2019-01-24T06:49:08.394Z,58.60
2019-01-24T06:50:08.389Z,61.60
2019-01-24T06:51:08.413Z,56.30
2019-01-24T06:52:08.361Z,56.30
2019-01-24T06:53:08.355Z,59.60
2019-01-24T06:54:08.374Z,56.90
2019-01-24T06:55:08.339Z,55.60
2019-01-24T06:56:08.371Z,54.00
2019-01-24T06:57:08.313Z,58.30
2019-01-24T06:58:08.305Z,55.00
2019-01-24T06:59:08.286Z,61.80
2019-01-24T07:00:08.276Z,55.90
2019-01-24T07:01:08.306Z,57.50
2019-01-24T07:02:08.256Z,55.60
2019-01-24T07:03:08.253Z,55.40
2019-01-24T07:04:08.256Z,56.40
2019-01-24T07:05:08.243Z,51.50
2019-01-24T07:06:08.219Z,53.90
2019-01-24T07:07:08.201Z,55.40
2019-01-24T07:08:08.214Z,51.70
2019-01-24T07:09:08.211Z,54.50
2019-01-24T07:10:08.169Z,52.70
2019-01-24T07:11:08.171Z,55.30
2019-01-24T07:12:08.145Z,53.80
2019-01-24T07:13:08.163Z,52.90
2019-01-24T07:14:08.138Z,57.80
2019-01-24T07:15:08.115Z,54.60
2019-01-24T07:16:08.105Z,53.30
2019-01-24T07:17:08.121Z,53.40
2019-01-24T07:18:08.113Z,52.30
2019-01-24T07:19:08.069Z,53.40
2019-01-24T07:20:08.081Z,56.30
2019-01-24T07:21:08.053Z,52.80
2019-01-24T07:22:08.037Z,57.90
2019-01-24T07:23:08.026Z,56.00
2019-01-24T07:24:08.040Z,55.70
2019-01-24T07:25:08.024Z,52.50
2019-01-24T07:26:07.995Z,54.00
2019-01-24T07:27:07.993Z,56.30
2019-01-24T07:28:07.972Z,51.00
2019-01-24T07:29:07.979Z,53.90
2019-01-24T07:30:07.958Z,50.40
2019-01-24T07:31:07.957Z,51.50
2019-01-24T07:32:07.929Z,57.10
2019-01-24T07:33:07.942Z,53.80
2019-01-24T07:34:07.919Z,53.50
2019-01-24T07:35:07.895Z,55.40
2019-01-24T07:36:07.916Z,51.90
2019-01-24T07:37:07.883Z,49.60
2019-01-24T07:38:07.880Z,57.30
2019-01-24T07:39:07.858Z,52.60
2019-01-24T07:40:07.902Z,51.10
2019-01-24T07:41:07.833Z,54.70
2019-01-24T07:42:07.826Z,53.10
2019-01-24T07:43:07.810Z,51.90
2019-01-24T07:44:07.801Z,53.10
2019-01-24T07:45:07.820Z,51.70
2019-01-24T07:46:07.778Z,50.70
2019-01-24T07:47:07.796Z,51.30
2019-01-24T07:48:07.776Z,49.70
2019-01-24T07:49:07.745Z,48.90
2019-01-24T07:50:07.736Z,51.80
2019-01-24T07:51:07.751Z,50.50
2019-01-24T07:52:07.717Z,53.20
2019-01-24T07:53:07.729Z,54.10
2019-01-24T07:54:07.742Z,50.90
2019-01-24T07:55:07.681Z,50.40
2019-01-24T07:56:07.669Z,55.40
2019-01-24T07:57:07.661Z,49.60
2019-01-24T07:58:07.646Z,51.90
2019-01-24T07:59:07.652Z,51.60
2019-01-24T08:00:07.652Z,51.00
2019-01-24T08:01:07.615Z,55.30
2019-01-24T08:02:07.610Z,53.90
2019-01-24T08:03:07.625Z,50.70
2019-01-24T08:04:07.584Z,50.20
2019-01-24T08:05:07.574Z,51.90
2019-01-24T08:06:09.120Z,51.20
2019-01-24T08:07:07.548Z,56.40
2019-01-24T08:08:07.564Z,55.40
2019-01-24T08:09:07.528Z,53.80
2019-01-24T08:10:07.539Z,51.40
2019-01-24T08:11:07.534Z,50.30
2019-01-24T08:12:07.508Z,55.50
2019-01-24T08:13:07.499Z,53.10
2019-01-24T08:14:07.491Z,51.40
2019-01-24T08:15:07.493Z,51.20
2019-01-24T08:16:07.454Z,53.90
2019-01-24T08:17:07.441Z,55.40
2019-01-24T08:18:07.444Z,50.40
2019-01-24T08:19:07.421Z,54.40
2019-01-24T08:20:07.431Z,54.90
2019-01-24T08:21:07.398Z,52.80
2019-01-24T08:22:07.387Z,53.30
2019-01-24T08:23:07.399Z,53.60
2019-01-24T08:24:07.375Z,57.20
2019-01-24T08:25:07.355Z,56.00
2019-01-24T08:26:07.343Z,52.20
2019-01-24T08:27:07.336Z,50.60
2019-01-24T08:28:07.354Z,56.40
2019-01-24T08:29:07.343Z,54.80
2019-01-24T08:30:07.305Z,52.00
2019-01-24T08:31:07.288Z,56.10
2019-01-24T08:32:07.281Z,57.30
2019-01-24T08:33:07.275Z,54.80
2019-01-24T08:34:07.279Z,54.60
2019-01-24T08:35:07.246Z,56.20
2019-01-24T08:36:07.234Z,57.90
2019-01-24T08:37:07.223Z,57.10
2019-01-24T08:38:07.214Z,54.00
2019-01-24T08:39:07.231Z,56.80
2019-01-24T08:40:07.215Z,57.50
2019-01-24T08:41:07.187Z,56.00
2019-01-24T08:42:07.171Z,55.50
2019-01-24T08:43:07.157Z,58.90
2019-01-24T08:44:07.169Z,57.40
2019-01-24T08:45:07.140Z,54.60
2019-01-24T08:46:07.125Z,55.90
2019-01-24T08:47:07.775Z,58.70
2019-01-24T08:48:07.105Z,58.40
2019-01-24T08:49:07.118Z,57.90
2019-01-24T08:50:07.088Z,62.50
2019-01-24T08:51:07.072Z,59.50
2019-01-24T08:52:07.100Z,63.00
2019-01-24T08:53:07.048Z,61.20
2019-01-24T08:54:07.038Z,59.20
2019-01-24T08:55:07.069Z,57.50
2019-01-24T08:56:07.022Z,60.80
2019-01-24T08:57:07.008Z,64.10
2019-01-24T08:58:07.020Z,61.20
2019-01-24T08:59:06.986Z,64.40
2019-01-24T09:00:06.974Z,57.60
2019-01-24T09:01:06.960Z,67.70
2019-01-24T09:02:06.952Z,63.40
2019-01-24T09:03:06.960Z,63.30
2019-01-24T09:04:06.942Z,64.10
2019-01-24T09:05:06.969Z,63.30
2019-01-24T09:06:06.909Z,66.20
2019-01-24T09:07:06.896Z,65.40
2019-01-24T09:08:06.884Z,64.40
2019-01-24T09:09:06.876Z,64.20
2019-01-24T09:10:06.887Z,66.50
2019-01-24T09:11:06.889Z,67.60
2019-01-24T09:12:06.841Z,65.10
2019-01-24T09:13:06.833Z,71.20
2019-01-24T09:14:06.822Z,66.40
2019-01-24T09:15:06.809Z,68.50
2019-01-24T09:16:06.834Z,67.30
2019-01-24T09:17:06.816Z,70.10
2019-01-24T09:18:06.778Z,69.60
2019-01-24T09:19:06.769Z,70.40
2019-01-24T09:20:06.821Z,68.30
2019-01-24T09:21:06.761Z,68.60
2019-01-24T09:22:06.756Z,71.20
2019-01-24T09:23:06.728Z,64.50
2019-01-24T09:24:06.713Z,68.10
2019-01-24T09:25:06.700Z,67.60
2019-01-24T09:26:06.690Z,68.90
2019-01-24T09:27:06.696Z,72.50
2019-01-24T09:28:06.683Z,67.80
2019-01-24T09:29:06.699Z,70.50
2019-01-24T09:30:06.645Z,70.20
2019-01-24T09:31:06.657Z,67.60
2019-01-24T09:32:06.623Z,66.80
2019-01-24T09:33:06.634Z,69.90
2019-01-24T09:34:06.602Z,73.10
2019-01-24T09:35:06.594Z,72.00
2019-01-24T09:36:06.581Z,70.60
2019-01-24T09:37:06.625Z,70.10
2019-01-24T09:38:06.559Z,73.20
2019-01-24T09:39:06.547Z,74.20
2019-01-24T09:40:06.559Z,72.10
2019-01-24T09:41:06.531Z,69.50
2019-01-24T09:42:06.513Z,72.50
2019-01-24T09:43:06.521Z,75.50
2019-01-24T09:44:06.515Z,70.50
2019-01-24T09:45:06.510Z,71.70
2019-01-24T09:46:06.479Z,76.50
2019-01-24T09:47:06.484Z,71.60
2019-01-24T09:48:06.448Z,76.50
2019-01-24T09:49:06.438Z,74.10
2019-01-24T09:50:06.452Z,75.60
2019-01-24T09:51:06.456Z,75.20
2019-01-24T09:52:06.407Z,73.50
2019-01-24T09:53:06.395Z,75.90
2019-01-24T09:54:06.383Z,73.50
2019-01-24T09:55:06.372Z,80.20
2019-01-24T09:56:06.393Z,73.90
2019-01-24T09:57:06.352Z,75.50
2019-01-24T09:58:06.387Z,75.70
2019-01-24T09:59:06.332Z,77.00
2019-01-24T10:00:06.318Z,78.10
2019-01-24T10:01:06.334Z,73.90
2019-01-24T10:02:06.297Z,75.90
2019-01-24T10:03:06.300Z,74.40
2019-01-24T10:04:06.276Z,77.50
2019-01-24T10:05:06.307Z,76.50
2019-01-24T10:06:06.254Z,74.90
2019-01-24T10:07:06.248Z,74.10
2019-01-24T10:08:06.233Z,73.90
2019-01-24T10:09:06.254Z,74.70
2019-01-24T10:10:06.211Z,76.30
2019-01-24T10:11:06.199Z,74.10
2019-01-24T10:12:06.214Z,72.10
2019-01-24T10:13:06.181Z,74.40
2019-01-24T10:14:06.193Z,72.70
2019-01-24T10:15:06.159Z,73.60
2019-01-24T10:16:06.146Z,69.90
2019-01-24T10:17:06.133Z,71.40
2019-01-24T10:18:06.136Z,72.80
2019-01-24T10:19:06.142Z,73.70
2019-01-24T10:20:06.102Z,75.20
2019-01-24T10:21:06.091Z,72.70
2019-01-24T10:22:06.079Z,73.40
2019-01-24T10:23:06.074Z,76.00
2019-01-24T10:24:06.099Z,72.60
2019-01-24T10:25:06.055Z,68.20
2019-01-24T10:26:06.036Z,71.90
2019-01-24T10:27:06.051Z,74.80
2019-01-24T10:28:06.015Z,74.50
2019-01-24T10:29:06.025Z,71.40
2019-01-24T10:30:05.999Z,71.40
2019-01-24T10:31:05.985Z,74.90
2019-01-24T10:32:05.979Z,74.00
2019-01-24T10:33:05.993Z,76.40
2019-01-24T10:34:05.948Z,72.20
2019-01-24T10:35:05.937Z,74.90
2019-01-24T10:36:05.929Z,74.10
2019-01-24T10:37:05.939Z,74.90
2019-01-24T10:38:05.924Z,76.30
2019-01-24T10:39:05.912Z,73.10
2019-01-24T10:40:05.910Z,73.90
2019-01-24T10:41:05.872Z,74.50
2019-01-24T10:42:05.861Z,78.40
2019-01-24T10:43:05.865Z,78.10
2019-01-24T10:44:05.859Z,78.00
2019-01-24T10:45:05.849Z,82.10
2019-01-24T10:46:05.817Z,75.10
2019-01-24T10:47:05.812Z,79.50
2019-01-24T10:48:05.823Z,79.60
2019-01-24T10:49:05.803Z,75.10
2019-01-24T10:50:05.774Z,77.30
2019-01-24T10:51:05.766Z,76.60
2019-01-24T10:52:05.774Z,79.00
2019-01-24T10:53:05.830Z,79.90
2019-01-24T10:54:05.739Z,80.50
2019-01-24T10:55:05.755Z,77.80
2019-01-24T10:56:05.712Z,76.10
2019-01-24T10:57:05.786Z,80.00
2019-01-24T10:58:05.719Z,79.10
2019-01-24T10:59:05.680Z,80.60
2019-01-24T11:00:05.666Z,78.10
2019-01-24T11:01:05.655Z,78.20
2019-01-24T11:02:05.658Z,77.10
2019-01-24T11:03:05.712Z,84.20
2019-01-24T11:04:05.622Z,83.40
2019-01-24T11:05:05.609Z,82.10
2019-01-24T11:06:05.603Z,81.10
2019-01-24T11:07:05.588Z,75.90
2019-01-24T11:08:05.605Z,77.80
2019-01-24T11:09:05.582Z,77.50
2019-01-24T11:10:05.580Z,74.60
2019-01-24T11:11:05.548Z,78.20
2019-01-24T11:12:05.535Z,79.60
2019-01-24T11:13:05.526Z,81.40
2019-01-24T11:14:05.524Z,76.10
2019-01-24T11:15:05.516Z,76.80
2019-01-24T11:16:05.491Z,80.80
2019-01-24T11:17:05.483Z,83.10
2019-01-24T11:18:05.498Z,78.50
2019-01-24T11:19:05.461Z,80.20
2019-01-24T11:20:05.475Z,79.90
2019-01-24T11:21:05.439Z,82.80
2019-01-24T11:22:05.425Z,78.80
2019-01-24T11:23:05.431Z,77.30
2019-01-24T11:24:05.407Z,76.80
2019-01-24T11:25:05.439Z,80.80
2019-01-24T11:26:05.384Z,80.50
2019-01-24T11:27:05.371Z,73.40
2019-01-24T11:28:05.364Z,75.40
2019-01-24T11:29:05.352Z,74.10
2019-01-24T11:30:05.363Z,74.80
2019-01-24T11:31:05.333Z,75.20
2019-01-24T11:32:05.339Z,77.10
2019-01-24T11:33:05.310Z,76.30
2019-01-24T11:34:05.296Z,74.90
2019-01-24T11:35:05.306Z,77.00
2019-01-24T11:36:05.302Z,75.00
2019-01-24T11:37:05.262Z,77.20
2019-01-24T11:38:05.252Z,75.10
2019-01-24T11:39:05.239Z,78.80
2019-01-24T11:40:05.237Z,77.00
2019-01-24T11:41:05.244Z,77.10
2019-01-24T11:42:05.206Z,76.80
2019-01-24T11:43:05.199Z,79.70
2019-01-24T11:44:05.199Z,74.30
2019-01-24T11:45:05.174Z,79.20
2019-01-24T11:46:05.162Z,77.30
2019-01-24T11:47:05.192Z,77.70
2019-01-24T11:48:05.143Z,78.00
2019-01-24T11:49:05.133Z,75.40
2019-01-24T11:50:05.119Z,78.80
2019-01-24T11:51:05.125Z,76.20
2019-01-24T11:52:05.112Z,73.80
2019-01-24T11:53:05.122Z,80.90
2019-01-24T11:54:05.075Z,75.20
2019-01-24T11:55:05.067Z,74.40
2019-01-24T11:56:06.296Z,73.00
2019-01-24T11:57:05.043Z,73.30
2019-01-24T11:58:05.048Z,74.00
2019-01-24T11:59:05.022Z,75.80
2019-01-24T12:00:05.033Z,72.30
2019-01-24T12:01:05.004Z,76.30
2019-01-24T12:02:04.998Z,76.00
2019-01-24T12:03:04.980Z,75.00
2019-01-24T12:04:04.988Z,77.10
2019-01-24T12:05:04.958Z,75.00
2019-01-24T12:06:04.948Z,75.30
2019-01-24T12:07:04.934Z,79.30
2019-01-24T12:08:04.952Z,78.70
2019-01-24T12:09:04.942Z,76.30
2019-01-24T12:10:04.901Z,73.80
2019-01-24T12:11:04.921Z,74.60
2019-01-24T12:12:04.879Z,72.60
2019-01-24T12:13:04.871Z,74.90
2019-01-24T12:14:04.911Z,76.20
2019-01-24T12:15:04.847Z,78.40
2019-01-24T12:16:04.875Z,72.70
2019-01-24T12:17:04.825Z,76.20
2019-01-24T12:18:04.819Z,74.90
2019-01-24T12:19:04.801Z,70.90
2019-01-24T12:20:04.795Z,74.20
2019-01-24T12:21:04.803Z,74.30
2019-01-24T12:22:04.771Z,76.10
2019-01-24T12:23:04.769Z,70.30
2019-01-24T12:24:04.752Z,72.80
2019-01-24T12:25:04.738Z,73.30
2019-01-24T12:26:04.751Z,74.90
2019-01-24T12:27:04.720Z,75.00
2019-01-24T12:28:04.728Z,75.90
2019-01-24T12:29:04.694Z,75.60
2019-01-24T12:30:04.684Z,76.80
2019-01-24T12:31:04.672Z,73.50
2019-01-24T12:32:04.694Z,75.40
2019-01-24T12:33:04.667Z,74.00
2019-01-24T12:34:04.640Z,74.10
2019-01-24T12:35:04.634Z,74.60
2019-01-24T12:36:04.616Z,71.60
2019-01-24T12:37:11.122Z,77.50
2019-01-24T12:38:05.601Z,72.00
2019-01-24T12:39:04.611Z,76.30
2019-01-24T12:40:04.578Z,73.70
2019-01-24T12:41:04.589Z,70.60
2019-01-24T12:42:04.550Z,72.00
2019-01-24T12:43:04.540Z,72.00
2019-01-24T12:44:04.547Z,69.10
2019-01-24T12:45:04.525Z,73.30
2019-01-24T12:46:04.525Z,72.40
2019-01-24T12:47:04.497Z,71.50
2019-01-24T12:48:04.493Z,74.90
2019-01-24T12:49:04.509Z,75.20
2019-01-24T12:50:04.465Z,72.80
2019-01-24T12:51:04.459Z,73.00